Time;durP1;ratioP1;P1;durP2;ratioP2;P2;SDS_P1;SDS_P2;PMS_P1;PMS_P2;Temp;Humidity;BMP_temperature;BMP_pressure;BME280_temperature;BME280_humidity;BME280_pressure;Samples;Min_cycle;Max_cycle;Signal;HPM_P1;HPM_P2
2022/06/21 00:00:05;;;;;;;7.30;3.67;;;;;;;20.85;68.11;96609.31;5067349;28;20193;-72
2022/06/21 00:02:33;;;;;;;5.57;4.13;;;;;;;20.94;67.67;96613.69;5069042;28;20232;-73
2022/06/21 00:05:01;;;;;;;5.30;3.80;;;;;;;20.95;67.36;96610.94;5068798;28;20660;-73
2022/06/21 00:07:29;;;;;;;4.00;3.60;;;;;;;20.78;67.63;96609.06;5068005;28;20194;-72
2022/06/21 00:09:58;;;;;;;5.07;4.00;;;;;;;20.70;67.43;96610.72;5069044;28;20197;-73
2022/06/21 00:12:26;;;;;;;4.27;3.87;;;;;;;20.40;68.73;96603.06;5067388;28;20677;-72
2022/06/21 00:14:54;;;;;;;4.67;3.67;;;;;;;20.45;68.34;96603.44;5069181;28;20567;-73
2022/06/21 00:17:21;;;;;;;3.93;3.63;;;;;;;20.22;68.72;96595.88;5067568;28;20268;-73
2022/06/21 00:19:49;;;;;;;4.20;3.80;;;;;;;20.30;68.77;96589.09;5068729;28;20201;-71
2022/06/21 00:22:19;;;;;;;4.40;4.00;;;;;;;20.34;67.95;96601.78;5068578;28;20239;-72
2022/06/21 00:24:47;;;;;;;3.93;3.63;;;;;;;20.26;68.17;96591.16;5067504;28;20233;-72
2022/06/21 00:27:17;;;;;;;4.80;4.20;;;;;;;20.22;68.23;96595.03;5068762;28;20254;-72
2022/06/21 00:29:45;;;;;;;5.13;4.20;;;;;;;20.03;68.83;96592.41;5049016;28;20638;-72
2022/06/21 00:32:18;;;;;;;4.27;3.87;;;;;;;19.97;68.14;96582.44;5068596;28;20204;-72
2022/06/21 00:34:46;;;;;;;4.73;4.00;;;;;;;20.03;68.59;96584.50;5067476;28;20203;-72
2022/06/21 00:37:16;;;;;;;6.87;3.83;;;;;;;20.06;68.06;96587.69;5067921;28;20285;-72
2022/06/21 00:39:43;;;;;;;4.83;4.33;;;;;;;20.07;67.36;96578.81;5068835;28;20232;-72
2022/06/21 00:42:24;;;;;;;4.33;3.93;;;;;;;20.03;67.80;96592.41;5066989;28;20635;-72
2022/06/21 00:45:15;;;;;;;6.53;4.10;;;;;;;20.12;67.27;96588.91;5068727;28;20232;-72
2022/06/21 00:47:51;;;;;;;5.10;3.60;;;;;;;20.10;67.22;96591.69;5067247;28;20687;-72
2022/06/21 00:50:23;;;;;;;4.30;3.90;;;;;;;19.97;67.39;96580.63;5067633;28;20245;-72
2022/06/21 00:52:57;;;;;;;4.03;3.63;;;;;;;19.99;67.44;96583.13;5085394;28;20207;-71
2022/06/21 00:55:32;;;;;;;5.10;4.60;;;;;;;19.94;66.98;96578.28;5086163;28;20298;-71
2022/06/21 00:58:00;;;;;;;3.90;3.60;;;;;;;19.82;67.74;96573.31;5088305;28;20228;-72
2022/06/21 01:00:35;;;;;;;4.47;4.07;;;;;;;19.80;67.87;96581.34;5076277;28;20200;-73
2022/06/21 01:03:17;;;;;;;6.43;4.60;;;;;;;19.70;68.32;96577.03;5070942;28;20203;-72
2022/06/21 01:05:46;;;;;;;4.33;3.93;;;;;;;19.70;68.47;96577.03;5067943;28;21013;-71
2022/06/21 01:08:21;;;;;;;6.23;4.20;;;;;;;19.61;69.03;96577.84;5076079;28;20212;-72
2022/06/21 01:10:54;;;;;;;4.80;4.20;;;;;;;19.43;69.44;96580.31;5099029;28;21327;-72
2022/06/21 01:13:27;;;;;;;5.13;4.60;;;;;;;19.42;69.40;96574.22;5107187;28;20272;-72
2022/06/21 01:15:56;;;;;;;6.93;4.50;;;;;;;19.40;69.58;96578.78;5108264;28;20185;-71
2022/06/21 01:18:26;;;;;;;6.73;4.47;;;;;;;19.39;69.89;96574.47;5108285;28;20227;-72
2022/06/21 01:20:59;;;;;;;8.90;4.90;;;;;;;19.43;69.48;96569.81;5107025;28;20632;-72
2022/06/21 01:23:50;;;;;;;4.77;4.37;;;;;;;19.46;69.16;96565.09;5108244;28;20230;-71
2022/06/21 01:26:39;;;;;;;6.37;4.37;;;;;;;19.34;69.49;96566.19;5107055;28;20191;-71
2022/06/21 01:29:14;;;;;;;4.70;4.30;;;;;;;19.37;69.70;96558.03;5107414;28;20737;-71
2022/06/21 01:31:42;;;;;;;7.83;4.77;;;;;;;19.34;69.72;96565.34;5108276;28;20199;-72
2022/06/21 01:34:21;;;;;;;6.10;4.87;;;;;;;19.37;69.51;96560.66;5106733;28;20202;-72
2022/06/21 01:36:52;;;;;;;4.63;4.23;;;;;;;19.29;69.29;96552.59;5108187;28;20201;-72
2022/06/21 01:39:26;;;;;;;5.50;4.00;;;;;;;19.54;68.85;96546.03;5106757;28;20671;-71
2022/06/21 01:42:01;;;;;;;5.47;4.80;;;;;;;19.58;68.96;96565.81;5093126;28;20686;-71
2022/06/21 01:44:35;;;;;;;5.03;4.30;;;;;;;19.57;68.96;96563.31;5087668;28;20637;-73
2022/06/21 01:47:07;;;;;;;5.80;4.27;;;;;;;19.75;68.54;96559.03;5086138;28;20228;-72
2022/06/21 01:49:36;;;;;;;5.80;4.30;;;;;;;19.69;68.58;96555.19;5087775;28;20339;-71
2022/06/21 01:52:11;;;;;;;5.40;4.30;;;;;;;19.69;68.24;96551.72;5085928;28;20200;-71
2022/06/21 01:54:43;;;;;;;4.67;4.10;;;;;;;19.53;69.02;96554.88;5087393;28;20689;-71
2022/06/21 01:57:13;;;;;;;5.00;4.50;;;;;;;19.56;69.16;96556.41;5087645;28;20195;-71
2022/06/21 01:59:44;;;;;;;4.70;4.30;;;;;;;19.53;68.90;96554.88;5086452;28;20712;-72
2022/06/21 02:02:19;;;;;;;4.73;4.30;;;;;;;19.46;69.06;96544.09;5087467;28;20403;-71
2022/06/21 02:05:04;;;;;;;5.83;4.73;;;;;;;19.22;69.88;96543.63;5086030;28;20293;-71
2022/06/21 02:07:35;;;;;;;5.03;4.53;;;;;;;19.00;70.93;96550.88;5069139;28;20294;-71
2022/06/21 02:10:18;;;;;;;5.60;4.37;;;;;;;18.69;71.93;96550.06;5087308;28;20266;-71
2022/06/21 02:12:54;;;;;;;6.13;5.20;;;;;;;18.76;72.15;96545.09;5086090;28;20203;-72
2022/06/21 02:15:48;;;;;;;6.43;4.73;;;;;;;18.51;72.66;96547.22;5076391;28;20677;-72
2022/06/21 02:18:17;;;;;;;5.57;5.03;;;;;;;18.50;72.94;96544.72;5090285;28;20231;-73
2022/06/21 02:20:54;;;;;;;5.93;5.40;;;;;;;18.51;72.58;96544.59;5091087;28;20239;-71
2022/06/21 02:23:22;;;;;;;6.50;5.43;;;;;;;18.48;72.33;96538.78;5091248;28;20728;-72
2022/06/21 02:25:55;;;;;;;6.57;5.77;;;;;;;18.71;71.88;96542.91;5089756;28;20666;-71
2022/06/21 02:28:25;;;;;;;6.03;5.40;;;;;;;18.91;70.91;96543.78;5091189;28;20228;-71
2022/06/21 02:30:54;;;;;;;8.20;5.93;;;;;;;19.22;70.04;96535.75;5089587;28;20694;-72
2022/06/21 02:33:24;;;;;;;6.50;5.90;;;;;;;19.39;69.13;96540.34;5091293;28;20202;-69
2022/06/21 02:36:05;;;;;;;7.80;5.60;;;;;;;19.68;68.79;96547.44;5090658;28;20642;-71
2022/06/21 02:38:42;;;;;;;6.87;5.63;;;;;;;19.76;68.49;96545.78;5089534;28;20231;-71
2022/06/21 02:41:18;;;;;;;6.47;5.80;;;;;;;19.88;67.65;96549.94;5072809;28;20198;-71
2022/06/21 02:43:50;;;;;;;7.70;6.23;;;;;;;19.91;67.15;96539.13;5069152;28;20281;-71
2022/06/21 02:46:29;;;;;;;7.30;6.57;;;;;;;19.84;67.22;96531.94;5070816;28;20206;-71
2022/06/21 02:49:11;;;;;;;7.70;6.00;;;;;;;19.91;67.28;96531.22;5070369;28;20350;-71
2022/06/21 02:51:47;;;;;;;6.80;6.07;;;;;;;19.98;67.09;96534.16;5068882;28;20196;-72
2022/06/21 02:54:17;;;;;;;6.27;5.60;;;;;;;19.97;67.77;96530.69;5052865;28;20610;-71
2022/06/21 02:57:13;;;;;;;8.77;6.40;;;;;;;19.94;67.10;96532.75;5069222;28;20232;-71
2022/06/21 02:59:42;;;;;;;7.63;5.70;;;;;;;19.98;66.95;96528.88;5069899;28;20281;-71
2022/06/21 03:02:14;;;;;;;8.27;5.83;;;;;;;19.87;67.08;96513.25;5070458;28;20215;-71
2022/06/21 03:04:52;;;;;;;7.90;6.13;;;;;;;19.44;67.71;96529.44;5068934;28;20886;-70
2022/06/21 03:07:28;;;;;;;7.23;6.00;;;;;;;18.95;69.93;96521.56;5070369;28;20206;-70
2022/06/21 03:09:56;;;;;;;7.83;6.00;;;;;;;18.75;70.46;96531.19;5069195;28;20208;-72
2022/06/21 03:12:28;;;;;;;6.60;5.80;;;;;;;18.90;70.39;96535.09;5070190;28;20215;-71
2022/06/21 03:15:06;;;;;;;7.07;5.87;;;;;;;18.86;70.66;96533.69;5070405;28;20290;-71
2022/06/21 03:17:49;;;;;;;8.73;6.20;;;;;;;18.33;71.23;96519.91;5068686;28;20199;-70
2022/06/21 03:20:19;;;;;;;6.70;6.03;;;;;;;18.24;71.74;96535.56;5070118;28;20277;-70
2022/06/21 03:22:48;;;;;;;9.60;6.40;;;;;;;18.00;72.86;96529.75;5068676;28;20307;-70
2022/06/21 03:25:53;;;;;;;7.23;5.80;;;;;;;18.17;72.98;96531.81;5068836;28;20255;-70
2022/06/21 03:28:42;;;;;;;6.97;5.30;;;;;;;18.61;71.69;96529.72;5028536;28;20207;-70
2022/06/21 03:31:18;;;;;;;6.57;5.13;;;;;;;18.96;70.03;96524.03;5040630;28;20671;-70
2022/06/21 03:33:49;;;;;;;6.80;5.37;;;;;;;18.90;70.04;96523.78;5090228;28;20290;-70
2022/06/21 03:36:20;;;;;;;6.57;5.87;;;;;;;18.53;71.46;96516.44;5089769;28;20631;-70
2022/06/21 03:38:53;;;;;;;6.40;5.50;;;;;;;18.54;71.44;96518.13;5070230;28;20234;-70
2022/06/21 03:44:34;;;;;;;7.73;5.40;;;;;;;18.72;70.62;96520.09;5069719;28;20211;-71
2022/06/21 03:47:29;;;;;;;6.27;5.40;;;;;;;19.20;68.56;96503.53;5089526;28;20260;-71
2022/06/21 03:50:58;;;;;;;7.57;5.20;;;;;;;19.55;67.54;96502.22;5089752;28;20203;-71
2022/06/21 03:53:33;;;;;;;5.27;4.80;;;;;;;20.17;65.78;96507.84;4985674;28;20308;-71
2022/06/21 03:56:08;;;;;;;5.30;4.80;;;;;;;20.45;65.17;96511.38;5053666;28;20654;-70
2022/06/21 03:58:48;;;;;;;7.20;4.70;;;;;;;20.65;63.87;96511.16;5089616;28;20238;-71
2022/06/21 04:01:43;;;;;;;9.40;5.67;;;;;;;20.44;64.70;96509.72;5087631;28;20211;-71
2022/06/21 04:04:23;;;;;;;5.90;5.30;;;;;;;20.19;65.04;96503.25;5088923;28;20626;-71
2022/06/21 04:07:02;;;;;;;5.57;4.77;;;;;;;20.27;65.48;96506.88;5089231;28;20578;-71
2022/06/21 04:09:50;;;;;;;8.97;5.27;;;;;;;20.51;64.72;96522.16;5080028;28;20215;-70
2022/06/21 04:12:29;;;;;;;6.37;5.10;;;;;;;21.06;63.22;96523.06;5069028;28;20209;-71
2022/06/21 04:15:03;;;;;;;5.33;4.63;;;;;;;20.98;63.00;96513.22;5074017;28;20208;-72
2022/06/21 04:17:46;;;;;;;6.27;5.63;;;;;;;20.70;63.53;96510.72;5088848;28;20206;-72
2022/06/21 04:20:31;;;;;;;8.10;5.50;;;;;;;20.66;63.82;96507.56;5089018;28;20261;-72
2022/06/21 04:23:16;;;;;;;7.47;5.23;;;;;;;20.53;63.21;96509.69;5087213;28;20754;-72
2022/06/21 04:26:11;;;;;;;5.27;4.77;;;;;;;20.82;62.74;96515.66;5088509;28;20680;-73
2022/06/21 04:29:01;;;;;;;6.87;5.63;;;;;;;20.97;62.10;96508.13;5089222;28;20188;-71
2022/06/21 04:31:55;;;;;;;7.20;5.80;;;;;;;21.02;61.89;96496.19;5054429;28;20247;-71
2022/06/21 04:34:31;;;;;;;7.23;5.57;;;;;;;21.63;59.89;96509.50;5068160;28;20606;-72
2022/06/21 04:37:13;;;;;;;10.00;7.53;;;;;;;22.12;58.54;96507.28;5068685;28;20209;-72
2022/06/21 04:39:49;;;;;;;6.47;5.00;;;;;;;22.53;57.30;96512.69;5066815;28;20230;-71
2022/06/21 04:42:44;;;;;;;5.77;5.20;;;;;;;22.42;56.88;96504.22;5068330;28;20691;-71
2022/06/21 04:45:34;;;;;;;7.83;7.23;;;;;;;22.67;56.99;96502.56;5068111;28;20207;-70
2022/06/21 04:48:30;;;;;;;6.60;5.90;;;;;;;22.97;56.08;96496.75;5066672;28;20200;-73
2022/06/21 04:51:08;;;;;;;8.87;6.00;;;;;;;23.35;55.03;96497.06;5068377;28;20196;-72
2022/06/21 04:53:47;;;;;;;7.57;5.93;;;;;;;23.12;55.22;96485.41;5067731;28;20645;-71
2022/06/21 04:56:26;;;;;;;8.20;6.30;;;;;;;23.15;55.50;96476.34;5049843;28;20662;-71
2022/06/21 04:58:54;;;;;;;8.20;6.73;;;;;;;22.92;56.02;96470.81;5068556;28;20280;-73
2022/06/21 05:01:35;;;;;;;11.00;7.87;;;;;;;23.40;54.49;96491.31;5066622;28;20191;-71
2022/06/21 05:04:11;;;;;;;12.60;7.07;;;;;;;24.03;53.54;96494.16;5068374;28;20717;-71
2022/06/21 05:06:40;;;;;;;7.93;6.30;;;;;;;24.32;52.01;96460.06;5067617;28;20657;-71
2022/06/21 05:09:13;;;;;;;9.50;7.30;;;;;;;24.79;51.43;96490.09;5067869;28;20238;-71
2022/06/21 05:11:42;;;;;;;15.30;6.57;;;;;;;24.92;49.90;96492.19;5068088;28;20212;-71
2022/06/21 05:14:21;;;;;;;7.10;5.30;;;;;;;24.94;49.86;96492.84;5033142;28;20630;-71
2022/06/21 05:16:51;;;;;;;8.87;5.80;;;;;;;25.16;50.75;96494.75;5051692;28;20287;-72
2022/06/21 05:19:23;;;;;;;9.10;5.67;;;;;;;25.17;49.85;96496.41;5068021;28;20301;-72
2022/06/21 05:22:04;;;;;;;5.80;5.13;;;;;;;25.43;49.06;96501.44;5069065;28;20203;-72
2022/06/21 05:24:32;;;;;;;6.47;5.80;;;;;;;25.47;49.08;96500.91;5078883;28;20255;-72
2022/06/21 05:27:26;;;;;;;9.90;5.17;;;;;;;25.68;48.39;96498.44;5077233;28;20219;-72
2022/06/21 05:30:03;;;;;;;13.97;5.47;;;;;;;25.85;47.89;96496.50;5078887;28;20269;-72
2022/06/21 05:32:37;;;;;;;5.90;5.30;;;;;;;25.39;48.06;96490.31;5072644;28;20741;-72
2022/06/21 05:35:20;;;;;;;5.80;5.30;;;;;;;25.01;49.55;96488.53;5050569;28;20253;-71
2022/06/21 05:37:57;;;;;;;8.40;4.90;;;;;;;25.15;49.53;96494.91;5070208;28;20207;-71
2022/06/21 05:40:36;;;;;;;7.50;5.57;;;;;;;25.27;50.04;96491.72;5068094;28;20192;-71
2022/06/21 05:43:09;;;;;;;6.60;5.43;;;;;;;25.31;48.61;96487.72;5069088;28;20666;-71
2022/06/21 05:45:36;;;;;;;6.53;5.80;;;;;;;25.74;48.37;96488.94;5067676;28;20212;-71
2022/06/21 05:48:14;;;;;;;8.63;5.30;;;;;;;25.77;47.00;96494.75;5066751;28;20242;-71
2022/06/21 05:50:41;;;;;;;8.90;5.57;;;;;;;26.08;47.19;96485.91;5067856;28;20299;-70
2022/06/21 05:53:13;;;;;;;9.00;5.60;;;;;;;26.37;46.99;96470.03;5066229;28;20208;-72
2022/06/21 05:55:45;;;;;;;6.07;5.30;;;;;;;26.46;47.18;96479.56;5050684;28;20258;-72
2022/06/21 05:58:46;;;;;;;6.47;5.60;;;;;;;26.45;47.15;96484.06;5066574;28;20204;-72
2022/06/21 06:01:25;;;;;;;7.73;5.63;;;;;;;26.56;46.61;96488.09;5048675;28;20199;-70
2022/06/21 06:04:17;;;;;;;7.77;5.60;;;;;;;26.39;46.42;96482.13;5067293;28;20200;-71
2022/06/21 06:06:47;;;;;;;6.47;5.27;;;;;;;26.58;46.23;96489.53;5047976;28;20841;-71
2022/06/21 06:09:19;;;;;;;10.73;5.37;;;;;;;26.80;45.75;96476.38;5066705;28;20189;-72
2022/06/21 06:11:57;;;;;;;8.27;5.20;;;;;;;26.61;45.57;96473.25;5066808;28;20205;-71
2022/06/21 06:14:31;;;;;;;6.87;5.93;;;;;;;26.50;45.49;96481.66;5047594;28;20696;-71
2022/06/21 06:17:03;;;;;;;6.77;5.13;;;;;;;26.68;45.05;96488.47;5067063;28;20247;-72
2022/06/21 06:19:43;;;;;;;6.90;4.77;;;;;;;26.50;45.87;96483.50;5065271;28;20787;-71
2022/06/21 06:22:23;;;;;;;6.23;5.63;;;;;;;26.42;46.17;96483.59;5066394;28;20189;-71
2022/06/21 06:25:01;;;;;;;5.07;4.47;;;;;;;26.66;43.85;96491.31;5067039;28;20215;-71
2022/06/21 06:28:02;;;;;;;8.43;6.00;;;;;;;26.42;44.24;96483.59;5065364;28;20201;-71
2022/06/21 06:30:53;;;;;;;5.60;4.23;;;;;;;26.88;43.73;96487.75;4995764;28;20203;-72
2022/06/21 06:33:32;;;;;;;5.37;4.20;;;;;;;26.96;43.35;96489.47;5066423;28;20346;-71
2022/06/21 06:36:14;;;;;;;5.43;4.90;;;;;;;27.04;43.22;96482.22;5065588;28;20231;-72
2022/06/21 06:38:42;;;;;;;4.80;4.30;;;;;;;27.21;42.70;96481.03;5067358;28;20642;-71
2022/06/21 06:41:15;;;;;;;4.67;4.27;;;;;;;27.23;42.56;96479.00;5065419;28;20201;-71
2022/06/21 06:43:46;;;;;;;7.57;5.20;;;;;;;27.62;42.48;96475.16;5066640;28;20217;-72
2022/06/21 06:46:21;;;;;;;5.30;4.90;;;;;;;27.65;41.17;96458.81;5048391;28;20832;-70
2022/06/21 06:48:48;;;;;;;5.07;4.57;;;;;;;27.81;41.76;96477.19;5047047;28;20219;-72
2022/06/21 06:51:15;;;;;;;6.37;4.37;;;;;;;27.68;41.65;96477.88;5067074;28;20200;-71
2022/06/21 06:53:51;;;;;;;5.63;4.90;;;;;;;27.71;42.28;96471.38;5064999;28;20201;-72
2022/06/21 06:56:25;;;;;;;6.37;5.47;;;;;;;28.07;41.20;96456.16;5067159;28;20673;-72
2022/06/21 06:59:05;;;;;;;7.27;4.97;;;;;;;28.27;40.73;96459.81;5065152;28;20603;-72
2022/06/21 07:01:47;;;;;;;7.70;4.63;;;;;;;28.40;40.59;96462.53;5068068;28;20189;-71
2022/06/21 07:04:18;;;;;;;6.23;4.40;;;;;;;28.43;40.93;96458.69;5069750;28;20201;-72
2022/06/21 07:06:56;;;;;;;6.10;4.40;;;;;;;28.53;40.69;96457.31;5068814;28;20288;-73
2022/06/21 07:09:28;;;;;;;6.67;5.10;;;;;;;28.55;41.30;96457.94;5069928;28;20204;-72
2022/06/21 07:12:05;;;;;;;5.43;4.93;;;;;;;28.56;41.08;96451.66;5069333;28;20243;-73
2022/06/21 07:14:35;;;;;;;5.37;4.87;;;;;;;28.38;41.44;96458.47;5068173;28;20264;-73
2022/06/21 07:17:11;;;;;;;6.73;5.83;;;;;;;28.08;42.72;96465.78;5069623;28;20657;-72
2022/06/21 07:19:38;;;;;;;5.83;5.20;;;;;;;28.01;42.15;96460.41;5067841;28;20699;-72
2022/06/21 07:22:15;;;;;;;5.33;4.83;;;;;;;28.44;41.62;96463.81;5069697;28;20610;-73
2022/06/21 07:24:52;;;;;;;8.47;5.47;;;;;;;28.74;41.51;96464.44;5050522;28;20243;-72
2022/06/21 07:27:21;;;;;;;7.13;5.43;;;;;;;28.98;41.46;96456.78;5068751;28;20193;-72
2022/06/21 07:30:10;;;;;;;5.93;5.33;;;;;;;29.22;40.70;96463.50;5051293;28;20565;-72
2022/06/21 07:32:45;;;;;;;8.47;6.83;;;;;;;29.44;40.32;96464.16;5067958;28;20216;-72
2022/06/21 07:35:21;;;;;;;6.70;4.77;;;;;;;29.40;40.07;96460.25;5069273;28;21378;-73
2022/06/21 07:37:54;;;;;;;4.77;4.33;;;;;;;29.60;39.32;96458.44;5068644;28;20200;-72
2022/06/21 07:40:34;;;;;;;6.87;4.80;;;;;;;29.63;38.63;96460.72;5067886;28;20236;-72
2022/06/21 07:43:11;;;;;;;7.53;4.43;;;;;;;29.82;39.14;96459.16;5069209;28;20204;-72
2022/06/21 07:45:47;;;;;;;6.50;4.53;;;;;;;29.61;38.17;96449.44;5067125;28;20564;-72
2022/06/21 07:48:22;;;;;;;6.70;4.17;;;;;;;29.88;38.50;96455.66;5068649;28;20680;-73
2022/06/21 07:50:56;;;;;;;5.03;3.97;;;;;;;29.98;37.93;96453.41;5068444;28;20204;-73
2022/06/21 07:53:30;;;;;;;4.73;4.23;;;;;;;29.99;37.47;96445.19;5067586;28;20251;-74
2022/06/21 07:56:01;;;;;;;4.57;4.17;;;;;;;30.16;36.66;96457.09;5068823;28;20222;-73
2022/06/21 07:58:33;;;;;;;5.30;4.47;;;;;;;30.28;35.97;96452.78;5032574;28;20332;-73
2022/06/21 08:06:59;;;;;;;4.83;4.27;;;;;;;30.63;34.48;96455.22;5012387;28;20207;-72
2022/06/21 08:09:45;;;;;;;6.47;5.37;;;;;;;30.63;34.10;96455.22;5068369;28;20215;-73
2022/06/21 08:12:14;;;;;;;5.30;4.80;;;;;;;30.87;34.17;96459.94;5049383;28;20279;-71
2022/06/21 08:14:41;;;;;;;5.00;3.80;;;;;;;30.67;35.50;96453.75;5067299;28;20201;-73
2022/06/21 08:17:27;;;;;;;7.33;4.63;;;;;;;30.79;34.86;96457.47;5067901;28;20208;-72
2022/06/21 08:20:10;;;;;;;4.63;4.03;;;;;;;30.84;34.33;96454.97;5048349;28;20220;-73
2022/06/21 08:22:45;;;;;;;4.37;3.73;;;;;;;30.88;33.84;96458.91;5067780;28;20212;-73
2022/06/21 08:25:26;;;;;;;4.60;4.20;;;;;;;30.93;34.64;96453.75;5067657;28;20231;-73
2022/06/21 08:28:19;;;;;;;5.77;4.00;;;;;;;30.98;33.54;96457.44;5049041;28;20250;-71
2022/06/21 08:30:52;;;;;;;4.70;4.10;;;;;;;31.04;33.34;96463.78;5050254;28;20676;-72
2022/06/21 08:33:28;;;;;;;4.57;3.70;;;;;;;31.00;32.62;96465.22;5066758;28;20266;-73
2022/06/21 08:36:04;;;;;;;14.57;6.70;;;;;;;30.98;34.49;96457.44;5049906;28;20539;-73
2022/06/21 08:38:49;;;;;;;7.17;5.13;;;;;;;31.05;36.03;96468.09;5067317;28;20193;-73
2022/06/21 08:41:56;;;;;;;4.60;4.00;;;;;;;30.87;33.35;96465.28;5066499;28;20212;-72
2022/06/21 08:45:40;;;;;;;6.90;5.17;;;;;;;30.94;33.59;96468.75;5068428;28;20201;-73
2022/06/21 08:47:54;;;;;;;5.00;4.57;;;;;;;30.97;32.85;96463.00;5062648;28;20196;-73
2022/06/21 08:50:48;;;;;;;6.73;4.53;;;;;;;31.06;33.22;96462.53;5066036;28;20228;-72
2022/06/21 08:53:25;;;;;;;4.70;4.13;;;;;;;31.23;32.67;96458.34;5067559;28;20194;-74
2022/06/21 08:55:54;;;;;;;4.50;3.75;;;;;;;31.20;32.24;96471.34;5067344;28;20215;-73
2022/06/21 08:58:44;;;;;;;5.20;3.65;;;;;;;31.30;32.70;96461.00;5064566;28;20204;-74
2022/06/21 09:01:24;;;;;;;6.17;5.30;;;;;;;31.35;32.83;96460.38;5036373;28;20224;-73
2022/06/21 09:03:57;;;;;;;4.83;4.27;;;;;;;31.44;31.86;96445.72;5066112;28;20197;-73
2022/06/21 09:06:48;;;;;;;7.30;4.50;;;;;;;31.42;32.42;96450.47;5066961;28;20198;-73
2022/06/21 09:09:50;;;;;;;4.80;4.03;;;;;;;31.49;31.78;96457.44;5067474;28;20523;-73
2022/06/21 09:12:47;;;;;;;6.50;4.57;;;;;;;31.41;32.64;96471.06;5065428;28;20224;-73
2022/06/21 09:15:17;;;;;;;4.40;3.90;;;;;;;31.40;32.76;96465.94;5065914;28;20197;-72
2022/06/21 09:17:50;;;;;;;5.00;3.60;;;;;;;31.31;30.34;96457.28;5066681;28;20203;-73
2022/06/21 09:20:44;;;;;;;5.87;3.07;;;;;;;31.36;30.40;96467.34;5065186;28;20221;-73
2022/06/21 09:23:49;;;;;;;10.30;3.57;;;;;;;31.33;29.65;96461.41;5066072;28;20232;-73
2022/06/21 09:27:04;;;;;;;4.93;2.70;;;;;;;31.33;29.05;96465.91;5048866;28;20217;-73
2022/06/21 09:29:45;;;;;;;3.87;2.83;;;;;;;31.11;28.58;96459.22;4983333;28;20203;-73
2022/06/21 09:32:20;;;;;;;5.07;2.60;;;;;;;30.86;29.41;96451.09;4984527;28;20679;-73
2022/06/21 09:35:06;;;;;;;2.70;2.50;;;;;;;31.05;29.71;96452.06;5037617;28;20197;-73
2022/06/21 09:38:11;;;;;;;3.87;2.40;;;;;;;30.94;28.69;96452.69;5065782;28;20250;-72
2022/06/21 09:40:46;;;;;;;3.03;2.43;;;;;;;30.99;29.34;96450.22;5066882;28;20707;-73
2022/06/21 09:43:51;;;;;;;2.60;2.30;;;;;;;31.30;28.51;96461.81;5048981;28;20246;-73
2022/06/21 09:46:36;;;;;;;5.80;2.53;;;;;;;31.43;28.84;96452.94;5065395;28;20192;-74
2022/06/21 09:49:31;;;;;;;3.37;2.20;;;;;;;31.06;28.71;96469.75;5066810;28;20235;-72
2022/06/21 09:52:21;;;;;;;2.67;2.00;;;;;;;31.18;28.26;96452.81;5067805;28;20193;-74
2022/06/21 09:55:09;;;;;;;2.57;2.30;;;;;;;31.25;28.40;96440.22;5018760;28;20260;-73
2022/06/21 09:58:14;;;;;;;5.60;2.67;;;;;;;31.46;29.59;96444.47;5067011;28;20224;-74
2022/06/21 10:00:52;;;;;;;3.57;2.20;;;;;;;31.77;28.10;96447.19;5048901;28;20259;-72
2022/06/21 10:04:16;;;;;;;3.87;2.00;;;;;;;31.64;27.40;96435.72;5065286;28;20201;-73
2022/06/21 10:07:16;;;;;;;1.75;1.55;;;;;;;31.66;27.71;96445.19;4965090;28;20208;-72
2022/06/21 10:10:00;;;;;;;2.97;2.20;;;;;;;31.64;28.92;96422.31;4965623;28;20214;-72
2022/06/21 10:12:56;;;;;;;4.95;3.80;;;;;;;32.00;30.64;96436.75;5059974;28;20211;-73
2022/06/21 10:16:07;;;;;;;3.40;3.10;;;;;;;32.29;30.07;96434.44;5066584;28;20203;-71
2022/06/21 10:18:46;;;;;;;5.43;3.28;;;;;;;32.41;30.51;96433.50;5066617;28;20250;-73
2022/06/21 10:21:22;;;;;;;3.30;3.03;;;;;;;32.47;30.00;96434.50;5065084;28;20267;-72
2022/06/21 10:24:12;;;;;;;3.53;1.80;;;;;;;32.17;27.44;96430.84;5031975;28;20751;-71
2022/06/21 10:26:45;;;;;;;3.55;1.95;;;;;;;31.40;28.65;96359.69;5066381;28;20216;-72
2022/06/21 10:29:24;;;;;;;2.58;2.30;;;;;;;31.81;28.49;96420.78;5046844;28;20692;-72
2022/06/21 10:32:16;;;;;;;2.78;2.42;;;;;;;32.08;28.49;96420.41;5066597;28;20676;-71
2022/06/21 10:34:43;;;;;;;3.35;2.83;;;;;;;32.16;28.74;96426.50;5066904;28;20200;-73
2022/06/21 10:37:19;;;;;;;3.67;2.70;;;;;;;32.27;28.52;96417.75;5068985;28;20259;-72
2022/06/21 10:40:13;;;;;;;3.85;3.00;;;;;;;32.24;29.10;96418.19;5051352;28;20229;-72
2022/06/21 10:43:02;;;;;;;6.53;3.97;;;;;;;32.39;28.84;96413.31;5068243;28;20205;-72
2022/06/21 10:46:00;;;;;;;3.90;3.10;;;;;;;32.48;28.54;96409.34;5051854;28;20266;-71
2022/06/21 10:48:49;;;;;;;3.25;2.95;;;;;;;32.61;28.56;96403.81;5070100;28;20209;-72
2022/06/21 10:51:31;;;;;;;3.03;2.70;;;;;;;32.10;30.97;96404.09;5068452;28;20190;-71
2022/06/21 10:54:29;;;;;;;4.65;3.13;;;;;;;31.84;31.42;96406.97;5052141;28;20215;-72
2022/06/21 10:57:24;;;;;;;6.63;3.45;;;;;;;31.59;32.47;96411.47;5070328;28;21190;-72
2022/06/21 11:03:21;;;;;;;3.77;3.43;;;;;;;31.61;32.61;96404.84;5069486;28;20197;-73
2022/06/21 11:06:15;;;;;;;4.40;3.70;;;;;;;31.49;33.07;96411.13;5070051;28;20680;-72
2022/06/21 11:08:53;;;;;;;4.77;3.80;;;;;;;31.46;33.13;96398.97;5029754;28;20863;-72
2022/06/21 11:11:29;;;;;;;5.87;3.77;;;;;;;31.50;33.14;96396.69;5068968;28;20657;-73
2022/06/21 11:14:30;;;;;;;4.73;4.27;;;;;;;31.60;33.06;96397.03;5069418;28;20700;-73
2022/06/21 11:17:26;;;;;;;5.67;4.30;;;;;;;31.74;33.16;96388.66;5050368;28;20204;-73
2022/06/21 11:20:06;;;;;;;8.53;4.33;;;;;;;31.63;33.92;96396.59;5068549;28;20800;-71
2022/06/21 11:22:44;;;;;;;5.43;4.28;;;;;;;31.59;34.63;96390.88;5069134;28;20208;-71
2022/06/21 11:25:43;;;;;;;5.57;4.50;;;;;;;31.76;34.70;96400.00;5068100;28;20656;-72
2022/06/21 11:28:42;;;;;;;5.23;4.60;;;;;;;32.17;33.28;96409.38;5069632;28;20255;-72
2022/06/21 11:31:18;;;;;;;5.85;5.18;;;;;;;32.34;33.64;96405.91;5069267;28;20196;-71
2022/06/21 11:34:06;;;;;;;5.80;5.17;;;;;;;32.35;33.43;96406.75;5067559;28;20240;-72
2022/06/21 11:36:38;;;;;;;10.10;6.60;;;;;;;32.43;33.23;96409.97;5069390;28;20201;-72
2022/06/21 11:39:57;;;;;;;9.25;6.07;;;;;;;32.60;33.72;96411.03;5068015;28;20702;-74
2022/06/21 11:42:30;;;;;;;9.27;6.07;;;;;;;32.50;33.70;96405.38;5062418;28;20625;-73
2022/06/21 11:45:06;;;;;;;7.90;7.07;;;;;;;32.62;34.42;96408.94;5051512;28;20201;-74
2022/06/21 11:48:01;;;;;;;7.95;7.18;;;;;;;32.57;34.50;96407.97;5049037;28;20185;-72
2022/06/21 11:51:11;;;;;;;7.30;6.30;;;;;;;32.15;35.29;96412.28;5068370;28;20587;-73
2022/06/21 11:54:01;;;;;;;8.05;7.13;;;;;;;32.16;35.54;96402.38;5069144;28;20587;-73
2022/06/21 11:56:53;;;;;;;12.90;8.70;;;;;;;32.01;34.84;96405.38;5067867;28;20201;-72
2022/06/21 11:59:29;;;;;;;10.63;7.00;;;;;;;31.96;35.31;96400.69;5067831;28;20197;-73
2022/06/21 12:02:18;;;;;;;11.77;7.27;;;;;;;32.02;35.85;96399.00;5068868;28;20195;-72
2022/06/21 12:05:03;;;;;;;10.27;8.38;;;;;;;32.18;35.48;96397.63;5067469;28;20613;-72
2022/06/21 12:08:02;;;;;;;14.73;8.95;;;;;;;31.94;35.89;96393.91;5068451;28;20204;-72
2022/06/21 12:10:49;;;;;;;9.25;8.35;;;;;;;31.70;36.85;96386.63;5020144;28;20193;-72
2022/06/21 12:13:35;;;;;;;12.02;8.45;;;;;;;31.83;36.99;96389.22;5066812;28;20296;-72
2022/06/21 12:16:25;;;;;;;9.77;8.70;;;;;;;31.79;36.93;96380.00;5067897;28;20220;-72
2022/06/21 12:18:57;;;;;;;9.68;8.77;;;;;;;31.93;36.33;96393.09;5068650;28;20205;-72
2022/06/21 12:21:34;;;;;;;14.27;8.93;;;;;;;31.85;37.16;96390.66;5066906;28;20269;-73
2022/06/21 12:24:06;;;;;;;10.30;9.30;;;;;;;31.90;37.06;96376.63;5068487;28;20240;-73
2022/06/21 12:26:36;;;;;;;9.80;8.47;;;;;;;32.08;37.48;96374.00;5067282;28;20201;-73
2022/06/21 12:29:09;;;;;;;11.73;9.27;;;;;;;31.98;37.81;96379.84;5050309;28;20979;-72
2022/06/21 12:31:41;;;;;;;9.55;8.60;;;;;;;31.88;38.06;96365.31;5067976;28;20205;-72
2022/06/21 12:34:33;;;;;;;11.90;8.97;;;;;;;31.99;38.13;96370.78;5066573;28;20718;-72
2022/06/21 12:37:05;;;;;;;11.88;8.45;;;;;;;31.95;38.52;96374.94;5056506;28;20266;-72
2022/06/21 12:39:51;;;;;;;10.43;8.20;;;;;;;31.94;38.09;96364.44;5067020;28;20696;-72
2022/06/21 12:42:27;;;;;;;10.87;7.57;;;;;;;32.01;38.45;96365.19;5067196;28;20192;-72